ADDS METAR Data INFO
IDs: Format: Raw Decoded Include TAF

Data at: 0332 UTC 16 Dec 2017

KBED 160256Z 23003KT 6SM -SN OVC040 M06/M08 A2983 RMK AO2 SNB13 SLP119 P0000 60000 T10561083 58012
KBED 160156Z 26004KT 10SM OVC075 M05/M11 A2985 RMK AO2 SLP126 T10501106
KBED 160056Z 21004KT 10SM OVC080 M05/M11 A2987 RMK AO2 SLP131 T10501106
KBED 152356Z 21004KT 10SM OVC090 M05/M10 A2987 RMK AO2 SLP132 T10501100 11039 21050 55024
KBED 152256Z 05003KT 10SM OVC090 M04/M11 A2986 RMK AO2 SLP129 T10441106
KBED 152156Z 00000KT 7SM OVC070 M04/M12 A2990 RMK AO2 SLP141 T10391117
KBED 152056Z 18003KT 10SM OVC100 M04/M12 A2994 RMK AO2 SLP156 T10441117 56021
KBED 151956Z 21003KT 10SM OVC090 M04/M11 A2996 RMK AO2 SLP163 T10441111
KBED 151856Z 22003KT 10SM OVC100 M04/M11 A2997 RMK AO2 SLP167 T10441111
KBED 151756Z 21004KT 10SM FEW120 M04/M12 A3000 RMK AO2 SLP176 T10441117 11044 21122 58030
KBED 151656Z VRB03KT 10SM CLR M05/M12 A3003 RMK AO2 SLP185 T10501122
KBED 151556Z 20003KT 10SM SCT200 M06/M12 A3006 RMK AO2 SLP198 T10611117
KBED 151456Z 21004KT 10SM CLR M07/M13 A3009 RMK AO2 SLP207 T10721133 53012
KBED 151356Z 20003KT 10SM SCT200 M09/M13 A3007 RMK AO2 SLP203 T10891133
KBED 151256Z 22003KT 10SM SCT200 M11/M14 A3007 RMK AO2 SLP200 T11111144
KBED 151156Z 22004KT 10SM SCT200 M12/M16 A3005 RMK AO2 SLP196 T11221156 11094 21122 53007
KBED 151056Z AUTO 00000KT 10SM CLR M12/M14 A3004 RMK AO2 SLP192 T11171144
KBED 150956Z AUTO 24003KT 10SM CLR M11/M15 A3004 RMK AO2 SLP189 T11061150
KBED 150856Z AUTO 24004KT 10SM CLR M11/M15 A3003 RMK AO2 SLP187 T11061150 51013
KBED 150756Z AUTO 23004KT 10SM CLR M11/M15 A3002 RMK AO2 SLP185 T11061150
KBED 150656Z AUTO 00000KT 10SM CLR M11/M15 A3001 RMK AO2 SLP178 T11061150
KBED 150556Z AUTO 00000KT 10SM CLR M09/M16 A3000 RMK AO2 SLP175 T10941156 11061 21094 51015
KBED 150456Z AUTO 25004KT 10SM CLR M09/M16 A2998 RMK AO2 SLP171 T10941161 410281094
KBED 150356Z AUTO 24005KT 10SM CLR M09/M16 A2998 RMK AO2 SLP169 T10891161
KBED 150256Z AUTO 25005KT 10SM CLR M08/M17 A2995 RMK AO2 SLP160 T10831167 51028
KBED 150156Z 26009G16KT 10SM CLR M08/M17 A2994 RMK AO2 SLP156 T10781172
KBED 150056Z 25009G16KT 10SM CLR M07/M17 A2991 RMK AO2 SLP146 T10721172
KBED 142356Z 27007KT 10SM CLR M07/M17 A2987 RMK AO2 SLP131 T10671172 11028 21067 51043
KBED 142256Z 27008KT 10SM CLR M06/M16 A2983 RMK AO2 SLP117 T10561161
KBED 142156Z 27010KT 10SM CLR M05/M16 A2979 RMK AO2 SLP105 T10501161
KBED 142056Z 29010KT 10SM FEW060 M04/M16 A2974 RMK AO2 SLP088 T10391156 53034
KBED 141956Z 28012G21KT 10SM CLR M03/M16 A2970 RMK AO2 SLP074 T10281156
KBED 141856Z 28014G19KT 10SM CLR M03/M16 A2966 RMK AO2 SLP061 T10281156
KBED 141854Z 32014KT 10SM SCT060 M01/M15 A2965
KBED 141756Z 29010G19KT 10SM CLR M03/M14 A2964 RMK AO2 SLP054 T10281139 11028 21067 51008
KBED 141656Z 29010G17KT 10SM CLR M03/M13 A2962 RMK AO2 SLP048 T10331128
KBED 141556Z 29010KT 10SM BKN065 OVC080 M04/M13 A2963 RMK AO2 SLP052 T10441128